createdAt,value
2022-12-27T00:00:52.934Z,99926.59
2022-12-27T00:02:55.191Z,99931.84
2022-12-27T00:04:57.396Z,99937.19
2022-12-27T00:06:59.910Z,99938.94
2022-12-27T00:09:02.843Z,99937.19
2022-12-27T00:11:09.787Z,99927.47
2022-12-27T00:13:11.796Z,99922.88
2022-12-27T00:15:13.701Z,99928.28
2022-12-27T00:17:15.911Z,99927.25
2022-12-27T00:19:17.961Z,99932.47
2022-12-27T00:21:21.316Z,99931.47
2022-12-27T00:23:23.372Z,99928.63
2022-12-27T00:25:25.644Z,99934.84
2022-12-27T00:27:27.958Z,99927.75
2022-12-27T00:29:30.258Z,99925.88
2022-12-27T00:31:33.436Z,99938.41
2022-12-27T00:33:37.373Z,99929.44
2022-12-27T00:35:39.817Z,99926.66
2022-12-27T00:37:42.894Z,99928.41
2022-12-27T00:39:45.239Z,99927.75
2022-12-27T00:41:47.500Z,99930.25
2022-12-27T00:43:49.765Z,99935.03
2022-12-27T00:45:51.836Z,99928.47
2022-12-27T00:47:54.162Z,99928.41
2022-12-27T00:49:56.130Z,99932.03
2022-12-27T00:51:58.294Z,99933.06
2022-12-27T00:54:00.696Z,99926.78
2022-12-27T00:56:08.176Z,99928.66
2022-12-27T00:58:10.664Z,99926.19
2022-12-27T01:00:13.635Z,99930.50
2022-12-27T01:02:15.887Z,99930.31
2022-12-27T01:04:18.126Z,99926.75
2022-12-27T01:06:23.268Z,99934.22
2022-12-27T01:08:25.216Z,99927.75
2022-12-27T01:10:27.460Z,99936.66
2022-12-27T01:12:29.882Z,99934.88
2022-12-27T01:14:31.894Z,99935.75
2022-12-27T01:16:34.611Z,99932.31
2022-12-27T01:18:36.707Z,99926.97
2022-12-27T01:20:39.339Z,99925.19
2022-12-27T01:22:41.279Z,99926.88
2022-12-27T01:24:43.532Z,99927.75
2022-12-27T01:26:45.399Z,99922.41
2022-12-27T01:28:48.740Z,99927.75
2022-12-27T01:30:50.833Z,99934.00
2022-12-27T01:32:52.829Z,99937.66
2022-12-27T01:34:54.873Z,99933.97
2022-12-27T01:36:56.872Z,99935.91
2022-12-27T01:39:00.053Z,99937.88
2022-12-27T01:41:21.965Z,99932.66
2022-12-27T01:43:38.071Z,99932.22
2022-12-27T01:45:40.513Z,99926.59
2022-12-27T01:48:04.488Z,99925.56
2022-12-27T01:50:35.085Z,99930.91
2022-12-27T01:52:43.315Z,99915.66
2022-12-27T01:54:45.291Z,99914.63
2022-12-27T01:56:47.432Z,99912.94
2022-12-27T01:58:56.868Z,99913.97
2022-12-27T02:00:59.894Z,99917.47
2022-12-27T02:03:05.426Z,99908.44
2022-12-27T02:05:09.896Z,99905.00
2022-12-27T02:07:12.026Z,99892.63
2022-12-27T02:09:27.329Z,99896.66
2022-12-27T02:11:51.489Z,99894.91
2022-12-27T02:13:57.357Z,99896.81
2022-12-27T02:15:59.639Z,99894.97
2022-12-27T02:18:02.060Z,99891.31
2022-12-27T02:20:17.934Z,99891.59
2022-12-27T02:22:55.518Z,99884.50
2022-12-27T02:25:09.321Z,99885.00
2022-12-27T02:27:28.822Z,99873.25
2022-12-27T02:29:46.739Z,99884.53
2022-12-27T02:31:57.822Z,99891.75
2022-12-27T02:34:03.315Z,99901.44
2022-12-27T02:36:10.496Z,99897.16
2022-12-27T02:38:18.796Z,99897.19
2022-12-27T02:40:42.221Z,99888.38
2022-12-27T02:43:04.711Z,99901.06
2022-12-27T02:45:37.782Z,99898.25
2022-12-27T02:47:58.433Z,99903.59
2022-12-27T02:50:19.070Z,99906.59
2022-12-27T02:53:05.119Z,99905.22
2022-12-27T02:55:13.174Z,99910.66
2022-12-27T02:57:34.885Z,99909.84
2022-12-27T03:00:20.562Z,99902.91
2022-12-27T03:02:55.054Z,99901.06
2022-12-27T03:05:19.638Z,99905.66
2022-12-27T03:07:33.926Z,99899.47
2022-12-27T03:09:57.582Z,99889.50
2022-12-27T03:12:18.628Z,99883.88
2022-12-27T03:14:59.331Z,99881.94
2022-12-27T03:17:11.810Z,99878.25
2022-12-27T03:20:01.112Z,99886.38
2022-12-27T03:22:23.089Z,99889.56
2022-12-27T03:24:51.492Z,99877.91
2022-12-27T03:26:57.224Z,99878.59
2022-12-27T03:29:19.812Z,99887.88
2022-12-27T03:32:24.611Z,99883.09
2022-12-27T03:34:41.370Z,99883.56
2022-12-27T03:37:02.196Z,99890.53
2022-12-27T03:39:16.026Z,99899.69
2022-12-27T03:41:46.562Z,99898.81
2022-12-27T03:43:48.725Z,99894.09
2022-12-27T03:46:12.526Z,99904.94
2022-12-27T03:48:21.756Z,99897.94
2022-12-27T03:50:39.260Z,99900.63
2022-12-27T03:52:58.037Z,99905.22
2022-12-27T03:55:01.678Z,99897.00
2022-12-27T03:57:25.403Z,99893.63
2022-12-27T03:59:29.600Z,99901.38
2022-12-27T04:01:31.618Z,99904.06
2022-12-27T04:03:33.916Z,99897.81
2022-12-27T04:05:36.170Z,99895.09
2022-12-27T04:07:38.536Z,99906.97
2022-12-27T04:09:59.197Z,99915.19
2022-12-27T04:12:19.903Z,99916.06
2022-12-27T04:14:40.224Z,99918.88
2022-12-27T04:17:00.767Z,99903.38
2022-12-27T04:19:21.414Z,99896.25
2022-12-27T04:21:42.100Z,99899.19
2022-12-27T04:24:02.911Z,99901.88
2022-12-27T04:26:23.825Z,99912.63
2022-12-27T04:28:44.507Z,99927.97
2022-12-27T04:31:05.378Z,99934.50
2022-12-27T04:33:26.033Z,99939.09
2022-12-27T04:35:28.148Z,99929.31
2022-12-27T04:37:30.261Z,99937.34
2022-12-27T04:39:32.614Z,99954.44
2022-12-27T04:41:55.906Z,99964.19
2022-12-27T04:44:17.657Z,99974.97
2022-12-27T04:46:42.810Z,99981.53
2022-12-27T04:49:03.255Z,99980.53
2022-12-27T04:51:23.946Z,99968.06
2022-12-27T04:53:44.443Z,99983.41
2022-12-27T04:55:46.416Z,99982.50
2022-12-27T04:57:48.882Z,99987.06
2022-12-27T05:00:11.167Z,99985.28
2022-12-27T05:02:13.332Z,99987.97
2022-12-27T05:04:15.628Z,99988.06
2022-12-27T05:06:18.284Z,99997.91
2022-12-27T05:08:39.905Z,99994.31
2022-12-27T05:11:00.614Z,100000.53
2022-12-27T05:13:21.554Z,100014.25
2022-12-27T05:15:23.540Z,100011.53
2022-12-27T05:17:25.394Z,100006.25
2022-12-27T05:19:30.423Z,100007.09
2022-12-27T05:21:37.024Z,100003.59
2022-12-27T05:24:03.400Z,100003.53
2022-12-27T05:26:07.312Z,100007.25
2022-12-27T05:28:11.539Z,100009.06
2022-12-27T05:30:13.641Z,100009.81
2022-12-27T05:32:15.788Z,100008.06
2022-12-27T05:34:18.070Z,100009.75
2022-12-27T05:36:20.849Z,100016.06
2022-12-27T05:38:22.928Z,100007.09
2022-12-27T05:40:25.430Z,100014.31
2022-12-27T05:42:27.483Z,100010.69
2022-12-27T05:44:29.666Z,100011.63
2022-12-27T05:46:32.216Z,100010.69
2022-12-27T05:48:34.990Z,100025.09
2022-12-27T05:50:36.998Z,100019.72
2022-12-27T05:52:45.392Z,100014.38
2022-12-27T05:54:47.413Z,100004.47
2022-12-27T05:56:49.438Z,100010.81
2022-12-27T05:58:54.026Z,100009.94
2022-12-27T06:00:56.340Z,100009.84
2022-12-27T06:02:58.444Z,100010.06
2022-12-27T06:05:03.185Z,100003.66
2022-12-27T06:07:05.500Z,99997.44
2022-12-27T06:09:07.474Z,100001.03
2022-12-27T06:11:12.391Z,100006.53
2022-12-27T06:13:14.530Z,100013.75
2022-12-27T06:15:16.571Z,100016.44
2022-12-27T06:17:18.498Z,100029.09
2022-12-27T06:19:20.481Z,100036.22
2022-12-27T06:21:23.351Z,100033.50
2022-12-27T06:23:25.444Z,100028.97
2022-12-27T06:25:27.483Z,100025.69
2022-12-27T06:27:29.529Z,100041.00
2022-12-27T06:29:31.802Z,100049.25
2022-12-27T06:31:33.802Z,100057.25
2022-12-27T06:33:35.874Z,100055.53
2022-12-27T06:35:37.760Z,100056.38
2022-12-27T06:37:39.837Z,100057.25
2022-12-27T06:39:42.149Z,100069.94
2022-12-27T06:41:44.239Z,100063.59
2022-12-27T06:43:47.512Z,100056.34
2022-12-27T06:45:56.954Z,100052.06
2022-12-27T06:47:58.973Z,100058.25
2022-12-27T06:50:00.870Z,100070.81
2022-12-27T06:52:02.948Z,100080.72
2022-12-27T06:54:06.282Z,100082.50
2022-12-27T06:56:11.896Z,100075.38
2022-12-27T06:58:15.162Z,100088.72
2022-12-27T07:00:18.760Z,100096.97
2022-12-27T07:02:20.973Z,100094.38
2022-12-27T07:04:23.155Z,100108.72
2022-12-27T07:06:27.809Z,100111.34
2022-12-27T07:08:30.122Z,100111.53
2022-12-27T07:10:32.591Z,100120.34
2022-12-27T07:12:36.819Z,100121.19
2022-12-27T07:14:39.109Z,100124.84
2022-12-27T07:16:41.178Z,100125.88
2022-12-27T07:18:44.035Z,100131.28
2022-12-27T07:20:46.089Z,100133.06
2022-12-27T07:22:48.164Z,100142.06
2022-12-27T07:24:50.507Z,100136.66
2022-12-27T07:26:53.055Z,100135.78
2022-12-27T07:29:00.239Z,100141.09
2022-12-27T07:31:14.074Z,100145.06
2022-12-27T07:33:16.177Z,100150.16
2022-12-27T07:35:18.069Z,100143.84
2022-12-27T07:37:20.940Z,100151.06
2022-12-27T07:39:23.466Z,100145.56
2022-12-27T07:41:28.761Z,100150.94
2022-12-27T07:43:33.452Z,100153.41
2022-12-27T07:45:35.834Z,100153.84
2022-12-27T07:47:37.894Z,100153.50
2022-12-27T07:49:40.074Z,100161.47
2022-12-27T07:51:42.436Z,100159.66
2022-12-27T07:53:44.957Z,100167.47
2022-12-27T07:55:47.289Z,100166.63
2022-12-27T07:57:49.271Z,100164.75
2022-12-27T07:59:51.250Z,100163.78
2022-12-27T08:02:05.723Z,100166.47
2022-12-27T08:04:07.707Z,100169.84
2022-12-27T08:06:20.100Z,100169.59
2022-12-27T08:08:27.586Z,100178.97
2022-12-27T08:10:29.723Z,100177.66
2022-12-27T08:12:31.829Z,100186.31
2022-12-27T08:14:33.814Z,100184.50
2022-12-27T08:16:36.004Z,100180.75
2022-12-27T08:18:38.093Z,100180.50
2022-12-27T08:20:40.140Z,100177.66
2022-12-27T08:22:42.255Z,100173.88
2022-12-27T08:24:44.766Z,100184.72
2022-12-27T08:26:46.946Z,100189.81
2022-12-27T08:28:49.135Z,100202.44
2022-12-27T08:30:51.205Z,100212.06
2022-12-27T08:32:53.727Z,100207.84
2022-12-27T08:35:06.872Z,100202.66
2022-12-27T08:37:18.039Z,100207.19
2022-12-27T08:39:20.436Z,100213.41
2022-12-27T08:41:23.163Z,100219.81
2022-12-27T08:43:25.109Z,100211.66
2022-12-27T08:45:27.180Z,100218.56
2022-12-27T08:47:29.065Z,100218.50
2022-12-27T08:49:31.276Z,100215.38
2022-12-27T08:51:40.818Z,100216.84
2022-12-27T08:53:43.892Z,100207.09
2022-12-27T08:55:45.939Z,100216.84
2022-12-27T08:57:48.011Z,100212.00
2022-12-27T08:59:49.972Z,100214.69
2022-12-27T09:01:52.114Z,100228.25
2022-12-27T09:03:54.214Z,100226.41
2022-12-27T09:05:56.313Z,100226.41
2022-12-27T09:07:58.762Z,100221.66
2022-12-27T09:10:00.885Z,100213.28
2022-12-27T09:12:08.648Z,100209.72
2022-12-27T09:14:11.816Z,100208.56
2022-12-27T09:16:27.621Z,100207.88
2022-12-27T09:18:29.686Z,100214.63
2022-12-27T09:20:31.725Z,100205.69
2022-12-27T09:22:34.275Z,100217.19
2022-12-27T09:24:36.179Z,100211.88
2022-12-27T09:26:38.373Z,100207.38
2022-12-27T09:28:41.455Z,100209.91
2022-12-27T09:30:46.449Z,100197.53
2022-12-27T09:32:48.594Z,100193.50
2022-12-27T09:34:50.585Z,100196.13
2022-12-27T09:36:52.787Z,100187.94
2022-12-27T09:38:57.055Z,100189.59
2022-12-27T09:41:01.802Z,100198.56
2022-12-27T09:43:20.779Z,100189.59
2022-12-27T09:45:38.366Z,100201.28
2022-12-27T09:47:58.877Z,100211.13
2022-12-27T09:50:10.702Z,100215.59
2022-12-27T09:52:19.267Z,100209.25
2022-12-27T09:54:33.706Z,100207.56
2022-12-27T09:57:02.063Z,100211.94
2022-12-27T09:59:37.132Z,100213.81
2022-12-27T10:01:40.744Z,100210.66
2022-12-27T10:03:44.115Z,100209.50
2022-12-27T10:05:56.239Z,100204.00
2022-12-27T10:08:17.689Z,100201.19
2022-12-27T10:11:39.185Z,100197.63
2022-12-27T10:13:53.822Z,100210.91
2022-12-27T10:16:17.408Z,100210.66
2022-12-27T10:19:02.180Z,100202.59
2022-12-27T10:21:17.968Z,100194.22
2022-12-27T10:23:28.594Z,100198.66
2022-12-27T10:25:30.854Z,100187.56
2022-12-27T10:27:32.880Z,100188.72
2022-12-27T10:29:35.286Z,100186.38
2022-12-27T10:31:43.397Z,100179.41
2022-12-27T10:33:47.821Z,100193.81
2022-12-27T10:35:50.071Z,100192.97
2022-12-27T10:37:54.225Z,100193.03
2022-12-27T10:41:11.351Z,100192.69
2022-12-27T10:43:26.677Z,100196.91
2022-12-27T10:45:39.412Z,100203.84
2022-12-27T10:47:41.455Z,100204.56
2022-12-27T10:50:01.195Z,100209.88
2022-12-27T10:52:09.140Z,100229.44
2022-12-27T10:54:19.704Z,100226.34
2022-12-27T10:56:50.730Z,100218.13
2022-12-27T10:58:58.943Z,100219.69
2022-12-27T11:01:01.249Z,100227.00
2022-12-27T11:03:03.687Z,100232.41
2022-12-27T11:05:19.696Z,100225.09
2022-12-27T11:07:21.716Z,100223.88
2022-12-27T11:09:38.115Z,100222.38
2022-12-27T11:11:40.251Z,100225.91
2022-12-27T11:13:43.295Z,100228.47
2022-12-27T11:15:58.723Z,100224.16
2022-12-27T11:18:17.266Z,100220.28
2022-12-27T11:20:25.423Z,100216.56
2022-12-27T11:22:27.762Z,100211.00
2022-12-27T11:24:30.860Z,100218.06
2022-12-27T11:26:42.018Z,100208.16
2022-12-27T11:28:55.039Z,100216.06
2022-12-27T11:31:13.127Z,100214.19
2022-12-27T11:33:27.711Z,100228.75
2022-12-27T11:35:30.217Z,100225.31
2022-12-27T11:37:32.615Z,100234.63
2022-12-27T11:39:42.087Z,100231.41
2022-12-27T11:41:50.188Z,100229.72
2022-12-27T11:44:04.008Z,100217.22
2022-12-27T11:46:19.135Z,100230.78
2022-12-27T11:48:33.362Z,100229.78
2022-12-27T11:50:55.020Z,100223.53
2022-12-27T11:53:14.954Z,100222.63
2022-12-27T11:55:19.757Z,100232.47
2022-12-27T11:57:30.535Z,100229.09
2022-12-27T11:59:54.576Z,100231.84
2022-12-27T12:02:05.544Z,100230.06
2022-12-27T12:05:01.016Z,100242.91
2022-12-27T12:07:24.918Z,100244.69
2022-12-27T12:10:00.950Z,100252.91
2022-12-27T12:12:34.409Z,100261.47
2022-12-27T12:14:48.533Z,100262.50
2022-12-27T12:17:33.965Z,100259.81
2022-12-27T12:19:52.096Z,100273.22
2022-12-27T12:22:18.865Z,100277.78
2022-12-27T12:24:42.442Z,100266.41
2022-12-27T12:27:03.429Z,100279.19
2022-12-27T12:29:18.197Z,100278.25
2022-12-27T12:31:32.702Z,100289.28
2022-12-27T12:34:01.476Z,100287.56
2022-12-27T12:36:22.027Z,100288.44
2022-12-27T12:38:46.130Z,100279.53
2022-12-27T12:41:28.129Z,100282.41
2022-12-27T12:43:39.144Z,100290.50
2022-12-27T12:46:26.040Z,100290.47
2022-12-27T12:48:47.867Z,100293.22
2022-12-27T12:51:01.739Z,100294.00
2022-12-27T12:53:25.581Z,100310.94
2022-12-27T12:55:39.998Z,100297.44
2022-12-27T12:58:03.405Z,100296.38
2022-12-27T13:00:37.559Z,100308.25
2022-12-27T13:03:16.197Z,100313.28
2022-12-27T13:05:38.825Z,100314.16
2022-12-27T13:07:59.697Z,100317.81
2022-12-27T13:10:26.779Z,100311.63
2022-12-27T13:12:53.337Z,100306.22
2022-12-27T13:15:13.627Z,100304.34
2022-12-27T13:17:28.897Z,100302.59
2022-12-27T13:20:06.825Z,100306.44
2022-12-27T13:22:33.494Z,100300.09
2022-12-27T13:25:06.308Z,100308.56
2022-12-27T13:27:26.017Z,100308.06
2022-12-27T13:30:01.634Z,100311.63
2022-12-27T13:32:48.151Z,100316.47
2022-12-27T13:35:02.130Z,100316.41
2022-12-27T13:37:48.519Z,100322.13
2022-12-27T13:40:18.316Z,100332.06
2022-12-27T13:42:55.267Z,100334.94
2022-12-27T13:45:32.579Z,100338.66
2022-12-27T13:47:46.375Z,100349.19
2022-12-27T13:49:48.286Z,100355.59
2022-12-27T13:51:52.265Z,100357.38
2022-12-27T13:54:22.661Z,100356.03
2022-12-27T13:59:18.716Z,100362.47
2022-12-27T14:01:29.552Z,100356.28
2022-12-27T14:03:59.385Z,100364.56
2022-12-27T14:06:19.867Z,100359.97
2022-12-27T14:08:56.350Z,100354.97
2022-12-27T14:11:01.130Z,100361.19
2022-12-27T14:13:11.483Z,100363.44
2022-12-27T14:15:19.301Z,100364.31
2022-12-27T14:17:36.042Z,100373.41
2022-12-27T14:20:06.382Z,100359.19
2022-12-27T14:22:26.151Z,100363.72
2022-12-27T14:24:30.788Z,100366.25
2022-12-27T14:26:54.484Z,100389.16
2022-12-27T14:29:29.154Z,100398.97
2022-12-27T14:32:01.485Z,100410.59
2022-12-27T14:34:34.553Z,100415.31
2022-12-27T14:36:55.397Z,100409.59
2022-12-27T14:39:20.440Z,100411.97
2022-12-27T14:41:40.706Z,100421.13
2022-12-27T14:44:19.482Z,100426.34
2022-12-27T14:46:52.287Z,100426.34
2022-12-27T15:00:26.832Z,100441.16
2022-12-27T15:02:53.764Z,100438.69
2022-12-27T15:05:47.197Z,100440.53
2022-12-27T15:08:22.808Z,100441.44
2022-12-27T15:10:50.808Z,100455.72
2022-12-27T15:13:03.777Z,100451.13
2022-12-27T15:15:20.912Z,100453.13
2022-12-27T15:17:53.448Z,100467.44
2022-12-27T15:20:17.065Z,100467.44
2022-12-27T15:22:49.755Z,100475.72
2022-12-27T15:25:10.163Z,100478.31
2022-12-27T15:27:27.965Z,100489.19
2022-12-27T15:29:38.743Z,100496.28
2022-12-27T15:31:46.533Z,100504.63
2022-12-27T15:33:57.561Z,100497.50
2022-12-27T15:36:16.349Z,100501.84
2022-12-27T15:38:54.396Z,100508.56
2022-12-27T15:41:09.172Z,100510.28
2022-12-27T15:43:57.969Z,100515.16
2022-12-27T15:46:35.843Z,100509.94
2022-12-27T15:48:38.487Z,100511.91
2022-12-27T15:50:52.184Z,100521.09
2022-12-27T15:53:03.233Z,100520.31
2022-12-27T15:55:20.291Z,100517.53
2022-12-27T15:57:44.124Z,100520.53
2022-12-27T15:59:48.372Z,100530.44
2022-12-27T16:02:27.669Z,100531.53
2022-12-27T16:04:48.154Z,100543.56
2022-12-27T16:06:51.803Z,100546.91
2022-12-27T16:09:19.857Z,100562.28
2022-12-27T16:11:58.354Z,100548.75
2022-12-27T16:14:25.996Z,100546.03
2022-12-27T16:16:28.700Z,100549.88
2022-12-27T16:18:36.768Z,100554.44
2022-12-27T16:20:42.380Z,100559.03
2022-12-27T16:22:56.846Z,100559.25
2022-12-27T16:25:00.458Z,100556.63
2022-12-27T16:27:05.659Z,100545.03
2022-12-27T16:29:15.623Z,100546.22
2022-12-27T16:31:23.679Z,100549.81
2022-12-27T16:33:33.717Z,100548.75
2022-12-27T16:35:38.989Z,100552.50
2022-12-27T16:37:52.933Z,100561.59
2022-12-27T16:40:23.017Z,100569.13
2022-12-27T16:42:41.035Z,100580.09
2022-12-27T16:44:54.754Z,100589.06
2022-12-27T16:47:00.077Z,100592.38
2022-12-27T16:49:47.354Z,100587.31
2022-12-27T16:52:04.659Z,100591.97
2022-12-27T16:54:27.023Z,100607.34
2022-12-27T16:56:36.597Z,100601.84
2022-12-27T16:58:39.492Z,100609.97
2022-12-27T17:00:47.635Z,100613.56
2022-12-27T17:02:50.216Z,100619.81
2022-12-27T17:04:59.386Z,100609.84
2022-12-27T17:07:01.576Z,100615.06
2022-12-27T17:09:09.533Z,100619.72
2022-12-27T17:11:32.029Z,100626.00
2022-12-27T17:13:46.699Z,100631.28
2022-12-27T17:16:05.613Z,100640.28
2022-12-27T17:18:24.900Z,100636.75
2022-12-27T17:20:27.429Z,100639.25
2022-12-27T17:22:35.084Z,100641.00
2022-12-27T17:24:38.009Z,100642.84
2022-12-27T17:26:53.210Z,100643.16
2022-12-27T17:29:29.819Z,100648.56
2022-12-27T17:31:58.755Z,100634.94
2022-12-27T17:34:37.628Z,100637.88
2022-12-27T17:36:59.874Z,100639.56
2022-12-27T17:39:20.136Z,100640.75
2022-12-27T17:42:18.291Z,100644.31
2022-12-27T17:44:42.049Z,100647.97
2022-12-27T17:47:25.798Z,100644.28
2022-12-27T17:49:31.101Z,100651.34
2022-12-27T17:51:36.054Z,100654.88
2022-12-27T17:54:05.072Z,100653.06
2022-12-27T17:56:28.493Z,100645.00
2022-12-27T17:58:35.011Z,100641.63
2022-12-27T18:00:54.071Z,100640.97
2022-12-27T18:03:00.016Z,100663.44
2022-12-27T18:05:09.161Z,100659.09
2022-12-27T18:07:14.277Z,100658.09
2022-12-27T18:09:37.860Z,100663.84
2022-12-27T18:11:41.781Z,100669.06
2022-12-27T18:13:57.055Z,100670.88
2022-12-27T18:16:01.181Z,100663.69
2022-12-27T18:18:06.350Z,100667.31
2022-12-27T18:20:32.596Z,100677.34
2022-12-27T18:22:34.764Z,100678.13
2022-12-27T18:24:40.380Z,100678.22
2022-12-27T18:26:42.522Z,100687.94
2022-12-27T18:28:45.068Z,100691.56
2022-12-27T18:30:56.223Z,100696.19
2022-12-27T18:33:00.259Z,100685.47
2022-12-27T18:35:03.590Z,100689.06
2022-12-27T18:37:12.906Z,100689.06
2022-12-27T18:39:52.610Z,100686.66
2022-12-27T18:41:56.327Z,100693.84
2022-12-27T18:44:02.117Z,100689.19
2022-12-27T18:46:08.294Z,100699.06
2022-12-27T18:48:14.829Z,100693.69
2022-12-27T18:50:20.918Z,100703.63
2022-12-27T18:52:30.328Z,100692.81
2022-12-27T18:54:36.032Z,100699.19
2022-12-27T18:56:38.439Z,100701.03
2022-12-27T18:58:41.844Z,100707.50
2022-12-27T19:00:54.180Z,100715.63
2022-12-27T19:03:18.017Z,100713.81
2022-12-27T19:05:21.905Z,100718.28
2022-12-27T19:07:24.721Z,100708.72
2022-12-27T19:09:34.054Z,100709.75
2022-12-27T19:11:36.973Z,100707.94
2022-12-27T19:13:47.875Z,100706.97
2022-12-27T19:15:51.077Z,100703.28
2022-12-27T19:17:59.451Z,100705.09
2022-12-27T19:20:04.764Z,100707.66
2022-12-27T19:22:47.145Z,100714.97
2022-12-27T19:24:49.598Z,100724.56
2022-12-27T19:27:16.774Z,100718.25
2022-12-27T19:29:21.646Z,100718.19
2022-12-27T19:31:23.768Z,100718.09
2022-12-27T19:33:31.412Z,100714.53
2022-12-27T19:35:35.724Z,100721.72
2022-12-27T19:37:38.069Z,100725.25
2022-12-27T19:39:41.429Z,100727.06
2022-12-27T19:41:43.444Z,100729.78
2022-12-27T19:43:47.428Z,100736.03
2022-12-27T19:45:49.573Z,100736.00
2022-12-27T19:47:52.533Z,100738.69
2022-12-27T19:49:54.793Z,100740.50
2022-12-27T19:51:58.350Z,100733.34
2022-12-27T19:54:00.646Z,100736.06
2022-12-27T19:56:03.678Z,100740.63
2022-12-27T19:58:22.467Z,100744.19
2022-12-27T20:00:24.909Z,100746.97
2022-12-27T20:02:27.712Z,100751.47
2022-12-27T20:04:30.972Z,100756.91
2022-12-27T20:06:34.088Z,100751.56
2022-12-27T20:08:42.949Z,100759.69
2022-12-27T20:10:45.394Z,100758.81
2022-12-27T20:12:47.401Z,100764.19
2022-12-27T20:14:49.610Z,100755.25
2022-12-27T20:16:51.734Z,100758.81
2022-12-27T20:18:53.856Z,100753.50
2022-12-27T20:20:55.986Z,100758.84
2022-12-27T20:22:58.540Z,100764.22
2022-12-27T20:25:00.806Z,100758.91
2022-12-27T20:27:03.258Z,100767.88
2022-12-27T20:29:05.679Z,100773.28
2022-12-27T20:31:09.595Z,100763.44
2022-12-27T20:33:11.737Z,100767.09
2022-12-27T20:35:13.830Z,100769.78
2022-12-27T20:37:18.562Z,100768.91
2022-12-27T20:39:24.865Z,100777.91
2022-12-27T20:41:27.904Z,100773.53
2022-12-27T20:43:30.104Z,100777.22
2022-12-27T20:45:32.128Z,100777.16
2022-12-27T20:47:34.289Z,100781.63
2022-12-27T20:49:36.404Z,100779.00
2022-12-27T20:51:38.890Z,100778.97
2022-12-27T20:53:41.130Z,100787.06
2022-12-27T20:55:43.297Z,100786.13
2022-12-27T20:57:45.321Z,100789.84
2022-12-27T20:59:48.213Z,100800.59
2022-12-27T21:01:56.497Z,100805.09
2022-12-27T21:03:59.339Z,100806.91
2022-12-27T21:06:16.433Z,100812.34
2022-12-27T21:08:18.966Z,100819.50
2022-12-27T21:10:21.031Z,100815.25
2022-12-27T21:12:23.332Z,100812.56
2022-12-27T21:14:25.415Z,100812.56
2022-12-27T21:16:30.687Z,100812.59
2022-12-27T21:18:33.960Z,100807.25
2022-12-27T21:20:38.958Z,100801.06
2022-12-27T21:22:41.359Z,100805.53
2022-12-27T21:24:45.080Z,100800.22
2022-12-27T21:26:51.964Z,100800.28
2022-12-27T21:28:58.597Z,100798.50
2022-12-27T21:31:00.924Z,100795.00
2022-12-27T21:33:03.017Z,100797.72
2022-12-27T21:35:05.469Z,100796.88
2022-12-27T21:37:12.981Z,100801.41
2022-12-27T21:39:16.138Z,100805.03
2022-12-27T21:41:26.894Z,100800.63
2022-12-27T21:43:30.250Z,100813.16
2022-12-27T21:45:32.574Z,100797.16
2022-12-27T21:47:34.637Z,100806.13
2022-12-27T21:49:40.623Z,100816.00
2022-12-27T21:51:44.076Z,100817.84
2022-12-27T21:53:46.984Z,100810.69
2022-12-27T21:55:58.033Z,100812.63
2022-12-27T21:58:00.207Z,100820.59
2022-12-27T22:00:02.282Z,100811.69
2022-12-27T22:02:06.685Z,100820.72
2022-12-27T22:04:09.395Z,100828.72
2022-12-27T22:06:17.645Z,100826.06
2022-12-27T22:08:19.931Z,100829.72
2022-12-27T22:10:23.418Z,100838.63
2022-12-27T22:12:25.628Z,100840.44
2022-12-27T22:14:30.597Z,100835.97
2022-12-27T22:16:38.192Z,100841.34
2022-12-27T22:18:45.178Z,100844.03
2022-12-27T22:20:47.327Z,100846.75
2022-12-27T22:22:49.736Z,100848.53
2022-12-27T22:24:51.676Z,100845.91
2022-12-27T22:26:53.848Z,100839.69
2022-12-27T22:28:56.321Z,100841.50
2022-12-27T22:30:59.543Z,100837.97
2022-12-27T22:33:01.725Z,100839.81
2022-12-27T22:35:04.125Z,100842.56
2022-12-27T22:37:06.330Z,100842.53
2022-12-27T22:39:08.785Z,100849.72
2022-12-27T22:41:13.822Z,100845.25
2022-12-27T22:43:15.888Z,100845.31
2022-12-27T22:45:18.065Z,100845.31
2022-12-27T22:47:28.351Z,100842.66
2022-12-27T22:49:30.767Z,100845.38
2022-12-27T22:51:35.015Z,100854.28
2022-12-27T22:53:37.191Z,100846.28
2022-12-27T22:55:42.677Z,100841.88
2022-12-27T22:57:44.716Z,100848.13
2022-12-27T22:59:46.827Z,100850.78
2022-12-27T23:01:48.995Z,100844.53
2022-12-27T23:03:54.381Z,100851.69
2022-12-27T23:06:02.797Z,100839.22
2022-12-27T23:08:07.891Z,100838.34
2022-12-27T23:10:10.497Z,100837.47
2022-12-27T23:12:13.518Z,100842.81
2022-12-27T23:14:16.712Z,100833.94
2022-12-27T23:16:18.998Z,100832.16
2022-12-27T23:18:21.251Z,100833.06
2022-12-27T23:20:23.274Z,100835.75
2022-12-27T23:22:25.290Z,100832.22
2022-12-27T23:24:27.303Z,100825.09
2022-12-27T23:26:29.943Z,100824.19
2022-12-27T23:28:34.421Z,100824.22
2022-12-27T23:30:36.509Z,100823.34
2022-12-27T23:32:38.483Z,100822.44
2022-12-27T23:34:40.727Z,100824.25
2022-12-27T23:36:43.269Z,100826.91
2022-12-27T23:38:45.557Z,100825.13
2022-12-27T23:40:57.396Z,100828.72
2022-12-27T23:43:18.734Z,100831.41
2022-12-27T23:45:22.306Z,100835.84
2022-12-27T23:47:24.273Z,100838.53
2022-12-27T23:49:26.393Z,100844.78
2022-12-27T23:51:30.235Z,100834.97
2022-12-27T23:53:32.594Z,100834.97
2022-12-27T23:55:34.799Z,100827.84
2022-12-27T23:57:36.818Z,100827.88
2022-12-27T23:59:42.117Z,100833.22
